Burbank, Oklahoma
Current Conditions -  °F | °C
As of 10:53 PM on Monday 26 Jan 2015 (Local Time) from KPNC Reporting Station
Clear Clear  
Wind Chill: 42°   Ceiling: Unl
Heat Index: 42°   Visibility: 10mi
Dew Point: 32°   Wind: 3mph
Humidity: 67%   Direction: 50°NE
Pressure: 30.06"   Gusts: NA
Location:  36.7°N, 96.73°W
Report Text: KPNC 270453Z AUTO 05003KT 10SM CLR 06/00 A3006 RMK AO2 SLP179 T00560000
Loading
Personal Weather Stations






























Interactive Weather Map New forecast layout! Learn more

10-Day Weather Forecast

Advertisements
Track Severe Weather on mobile